Weston, West Virginia
Current Conditions -  °F | °C
As of 11:15 PM on Sunday 25 Jan 2015 (Local Time) from KW22 Reporting Station
Light Rain Light Rain  
Wind Chill: 32°   Ceiling: 2700
Heat Index: 36°   Visibility: 7mi
Dew Point: 34°   Wind: 5mph
Humidity: 93%   Direction: 180°S
Pressure: 29.72"   Gusts: NA
Location:  39.04°N, 80.47°W
Report Text: KW22 260415Z AUTO 18004KT 7SM -RA SCT020 BKN027 OVC032 02/01 A2972 RMK AO2
Loading
Personal Weather Stations






























Interactive Weather Map New forecast layout! Learn more

10-Day Weather Forecast

Advertisements
Track Severe Weather on mobile